METAR

TAF

 




Curitiba / Bacacheri, PR - SBBI


27 de Março de 2015 às 22:00 (UTC)


Tempo:

Céu nublado, com chuva e trovoada

Temperatura:

19ºC

Umidade Relativa:

100%

Localização:
Ajuste do Altímetro:

1021 hPa

Visibilidade Horizontal Predominante:

2500 m

Direção e Velocidade do Vento:

090° 11,11 Km/h


Observação Meteorológica:

METAR SBBI 272200Z 09006KT 2500 +RA BR SCT005 OVC010 19/19 Q1021 RETS=